sensor_id;sensor_type;location;lat;lon;timestamp;temperature;humidity
56512;DHT22;42408;53.238;5.686;2022-09-27T00:00:22;11.00;99.90
56512;DHT22;42408;53.238;5.686;2022-09-27T00:02:48;10.90;99.90
56512;DHT22;42408;53.238;5.686;2022-09-27T00:05:14;11.00;99.90
56512;DHT22;42408;53.238;5.686;2022-09-27T00:07:40;11.00;99.90
56512;DHT22;42408;53.238;5.686;2022-09-27T00:10:07;11.10;99.90
56512;DHT22;42408;53.238;5.686;2022-09-27T00:12:33;11.00;99.90
56512;DHT22;42408;53.238;5.686;2022-09-27T00:14:59;11.00;99.90
56512;DHT22;42408;53.238;5.686;2022-09-27T00:17:27;11.00;99.90
56512;DHT22;42408;53.238;5.686;2022-09-27T00:19:53;10.90;99.90
56512;DHT22;42408;53.238;5.686;2022-09-27T00:22:21;10.90;99.90
56512;DHT22;42408;53.238;5.686;2022-09-27T00:24:48;10.90;99.90
56512;DHT22;42408;53.238;5.686;2022-09-27T00:27:14;10.90;99.90
56512;DHT22;42408;53.238;5.686;2022-09-27T00:29:39;10.90;99.90
56512;DHT22;42408;53.238;5.686;2022-09-27T00:32:05;10.80;99.90
56512;DHT22;42408;53.238;5.686;2022-09-27T00:34:31;10.80;99.90
56512;DHT22;42408;53.238;5.686;2022-09-27T00:36:56;10.70;99.90
56512;DHT22;42408;53.238;5.686;2022-09-27T00:39:22;10.70;99.90
56512;DHT22;42408;53.238;5.686;2022-09-27T00:41:48;10.70;99.90
56512;DHT22;42408;53.238;5.686;2022-09-27T00:47:02;10.70;99.90
56512;DHT22;42408;53.238;5.686;2022-09-27T00:49:35;10.60;99.90
56512;DHT22;42408;53.238;5.686;2022-09-27T00:52:30;10.60;99.90
56512;DHT22;42408;53.238;5.686;2022-09-27T00:55:03;10.60;99.90
56512;DHT22;42408;53.238;5.686;2022-09-27T00:57:31;10.70;99.90
56512;DHT22;42408;53.238;5.686;2022-09-27T01:00:11;10.70;99.90
56512;DHT22;42408;53.238;5.686;2022-09-27T01:02:39;10.70;99.90
56512;DHT22;42408;53.238;5.686;2022-09-27T01:05:08;10.60;99.90
56512;DHT22;42408;53.238;5.686;2022-09-27T01:07:34;10.70;99.90
56512;DHT22;42408;53.238;5.686;2022-09-27T01:10:00;10.60;99.90
56512;DHT22;42408;53.238;5.686;2022-09-27T01:12:36;10.60;99.90
56512;DHT22;42408;53.238;5.686;2022-09-27T01:15:16;10.60;99.90
56512;DHT22;42408;53.238;5.686;2022-09-27T01:18:09;10.60;99.90
56512;DHT22;42408;53.238;5.686;2022-09-27T01:26:38;10.50;99.90
56512;DHT22;42408;53.238;5.686;2022-09-27T01:29:11;10.40;99.90
56512;DHT22;42408;53.238;5.686;2022-09-27T01:31:50;10.40;99.90
56512;DHT22;42408;53.238;5.686;2022-09-27T01:34:43;10.40;99.90
56512;DHT22;42408;53.238;5.686;2022-09-27T01:37:23;10.40;99.90
56512;DHT22;42408;53.238;5.686;2022-09-27T01:40:07;10.40;99.90
56512;DHT22;42408;53.238;5.686;2022-09-27T01:42:39;10.40;99.90
56512;DHT22;42408;53.238;5.686;2022-09-27T01:45:20;10.70;99.90
56512;DHT22;42408;53.238;5.686;2022-09-27T01:48:07;10.40;99.90
56512;DHT22;42408;53.238;5.686;2022-09-27T01:50:40;10.50;99.90
56512;DHT22;42408;53.238;5.686;2022-09-27T01:53:20;10.50;99.90
56512;DHT22;42408;53.238;5.686;2022-09-27T01:55:48;10.50;99.90
56512;DHT22;42408;53.238;5.686;2022-09-27T01:58:29;10.40;99.90
56512;DHT22;42408;53.238;5.686;2022-09-27T02:00:58;10.40;99.90
56512;DHT22;42408;53.238;5.686;2022-09-27T02:03:47;10.40;99.90
56512;DHT22;42408;53.238;5.686;2022-09-27T02:06:18;10.30;99.90
56512;DHT22;42408;53.238;5.686;2022-09-27T02:08:58;10.30;99.90
56512;DHT22;42408;53.238;5.686;2022-09-27T02:11:26;10.20;99.90
56512;DHT22;42408;53.238;5.686;2022-09-27T02:13:59;10.20;99.90
56512;DHT22;42408;53.238;5.686;2022-09-27T02:19:14;10.10;99.90
56512;DHT22;42408;53.238;5.686;2022-09-27T02:22:15;10.10;99.90
56512;DHT22;42408;53.238;5.686;2022-09-27T02:25:47;10.10;99.90
56512;DHT22;42408;53.238;5.686;2022-09-27T02:27:50;10.10;99.90
56512;DHT22;42408;53.238;5.686;2022-09-27T02:30:17;10.20;99.90
56512;DHT22;42408;53.238;5.686;2022-09-27T02:32:43;10.20;99.90
56512;DHT22;42408;53.238;5.686;2022-09-27T02:35:21;10.20;99.90
56512;DHT22;42408;53.238;5.686;2022-09-27T02:37:49;10.20;99.90
56512;DHT22;42408;53.238;5.686;2022-09-27T02:40:16;10.20;99.90
56512;DHT22;42408;53.238;5.686;2022-09-27T02:42:42;10.20;99.90
56512;DHT22;42408;53.238;5.686;2022-09-27T02:45:09;10.10;99.90
56512;DHT22;42408;53.238;5.686;2022-09-27T02:48:10;10.10;99.90
56512;DHT22;42408;53.238;5.686;2022-09-27T02:53:42;10.10;99.90
56512;DHT22;42408;53.238;5.686;2022-09-27T02:56:26;10.00;99.90
56512;DHT22;42408;53.238;5.686;2022-09-27T03:04:06;10.00;99.90
56512;DHT22;42408;53.238;5.686;2022-09-27T03:06:35;10.00;99.90
56512;DHT22;42408;53.238;5.686;2022-09-27T03:09:02;10.00;99.90
56512;DHT22;42408;53.238;5.686;2022-09-27T03:11:28;10.00;99.90
56512;DHT22;42408;53.238;5.686;2022-09-27T03:13:53;10.00;99.90
56512;DHT22;42408;53.238;5.686;2022-09-27T03:16:19;10.00;99.90
56512;DHT22;42408;53.238;5.686;2022-09-27T03:18:45;10.00;99.90
56512;DHT22;42408;53.238;5.686;2022-09-27T03:21:10;10.10;99.90
56512;DHT22;42408;53.238;5.686;2022-09-27T03:23:36;10.10;99.90
56512;DHT22;42408;53.238;5.686;2022-09-27T03:26:02;10.10;99.90
56512;DHT22;42408;53.238;5.686;2022-09-27T03:28:28;10.10;99.90
56512;DHT22;42408;53.238;5.686;2022-09-27T03:30:54;10.20;99.90
56512;DHT22;42408;53.238;5.686;2022-09-27T03:33:20;10.20;99.90
56512;DHT22;42408;53.238;5.686;2022-09-27T03:35:46;10.20;99.90
56512;DHT22;42408;53.238;5.686;2022-09-27T03:38:12;10.20;99.90
56512;DHT22;42408;53.238;5.686;2022-09-27T03:40:38;10.20;99.90
56512;DHT22;42408;53.238;5.686;2022-09-27T03:43:04;10.20;99.90
56512;DHT22;42408;53.238;5.686;2022-09-27T03:45:29;10.20;99.90
56512;DHT22;42408;53.238;5.686;2022-09-27T03:47:55;10.20;99.90
56512;DHT22;42408;53.238;5.686;2022-09-27T03:50:20;10.20;99.90
56512;DHT22;42408;53.238;5.686;2022-09-27T03:52:46;10.30;99.90
56512;DHT22;42408;53.238;5.686;2022-09-27T03:55:12;10.30;99.90
56512;DHT22;42408;53.238;5.686;2022-09-27T03:57:38;10.20;99.90
56512;DHT22;42408;53.238;5.686;2022-09-27T04:00:05;10.30;99.90
56512;DHT22;42408;53.238;5.686;2022-09-27T04:02:31;10.30;99.90
56512;DHT22;42408;53.238;5.686;2022-09-27T04:04:57;10.30;99.90
56512;DHT22;42408;53.238;5.686;2022-09-27T04:07:22;10.20;99.90
56512;DHT22;42408;53.238;5.686;2022-09-27T04:09:48;10.30;99.90
56512;DHT22;42408;53.238;5.686;2022-09-27T04:12:14;10.30;99.90
56512;DHT22;42408;53.238;5.686;2022-09-27T04:14:40;11.00;99.90
56512;DHT22;42408;53.238;5.686;2022-09-27T04:17:06;10.20;99.90
56512;DHT22;42408;53.238;5.686;2022-09-27T04:19:32;10.20;99.90
56512;DHT22;42408;53.238;5.686;2022-09-27T04:21:57;10.20;99.90
56512;DHT22;42408;53.238;5.686;2022-09-27T04:24:23;10.20;99.90
56512;DHT22;42408;53.238;5.686;2022-09-27T04:26:49;10.20;99.90
56512;DHT22;42408;53.238;5.686;2022-09-27T04:29:16;10.20;99.90
56512;DHT22;42408;53.238;5.686;2022-09-27T04:31:42;10.20;99.90
56512;DHT22;42408;53.238;5.686;2022-09-27T04:34:09;10.10;99.90
56512;DHT22;42408;53.238;5.686;2022-09-27T04:36:35;10.10;99.90
56512;DHT22;42408;53.238;5.686;2022-09-27T04:39:03;10.10;99.90
56512;DHT22;42408;53.238;5.686;2022-09-27T04:41:29;10.10;99.90
56512;DHT22;42408;53.238;5.686;2022-09-27T04:43:55;10.10;99.90
56512;DHT22;42408;53.238;5.686;2022-09-27T04:46:22;10.10;99.90
56512;DHT22;42408;53.238;5.686;2022-09-27T04:48:49;10.20;99.90
56512;DHT22;42408;53.238;5.686;2022-09-27T04:51:15;10.20;99.90
56512;DHT22;42408;53.238;5.686;2022-09-27T04:53:42;10.80;99.90
56512;DHT22;42408;53.238;5.686;2022-09-27T04:56:08;10.10;99.90
56512;DHT22;42408;53.238;5.686;2022-09-27T04:58:33;10.20;99.90
56512;DHT22;42408;53.238;5.686;2022-09-27T05:00:59;10.10;99.90
56512;DHT22;42408;53.238;5.686;2022-09-27T05:03:27;10.20;99.90
56512;DHT22;42408;53.238;5.686;2022-09-27T05:05:53;10.10;99.90
56512;DHT22;42408;53.238;5.686;2022-09-27T05:08:19;10.10;99.90
56512;DHT22;42408;53.238;5.686;2022-09-27T05:10:46;10.10;99.90
56512;DHT22;42408;53.238;5.686;2022-09-27T05:13:12;10.10;99.90
56512;DHT22;42408;53.238;5.686;2022-09-27T05:15:38;10.00;99.90
56512;DHT22;42408;53.238;5.686;2022-09-27T05:18:04;10.00;99.90
56512;DHT22;42408;53.238;5.686;2022-09-27T05:20:31;10.00;99.90
56512;DHT22;42408;53.238;5.686;2022-09-27T05:22:57;10.00;99.90
56512;DHT22;42408;53.238;5.686;2022-09-27T05:25:23;10.00;99.90
56512;DHT22;42408;53.238;5.686;2022-09-27T05:27:49;10.00;99.90
56512;DHT22;42408;53.238;5.686;2022-09-27T05:30:15;10.00;99.90
56512;DHT22;42408;53.238;5.686;2022-09-27T05:32:42;10.00;99.90
56512;DHT22;42408;53.238;5.686;2022-09-27T05:35:08;10.00;99.90
56512;DHT22;42408;53.238;5.686;2022-09-27T05:37:35;10.00;99.90
56512;DHT22;42408;53.238;5.686;2022-09-27T05:40:01;10.00;99.90
56512;DHT22;42408;53.238;5.686;2022-09-27T05:42:26;10.10;99.90
56512;DHT22;42408;53.238;5.686;2022-09-27T05:44:52;10.10;99.90
56512;DHT22;42408;53.238;5.686;2022-09-27T05:47:18;10.10;99.90
56512;DHT22;42408;53.238;5.686;2022-09-27T05:49:43;10.10;99.90
56512;DHT22;42408;53.238;5.686;2022-09-27T05:52:09;10.10;99.90
56512;DHT22;42408;53.238;5.686;2022-09-27T05:54:35;10.10;99.90
56512;DHT22;42408;53.238;5.686;2022-09-27T05:57:00;10.10;99.90
56512;DHT22;42408;53.238;5.686;2022-09-27T05:59:26;10.10;99.90
56512;DHT22;42408;53.238;5.686;2022-09-27T06:01:53;10.10;99.90
56512;DHT22;42408;53.238;5.686;2022-09-27T06:04:19;10.10;99.90
56512;DHT22;42408;53.238;5.686;2022-09-27T06:06:46;10.20;99.90
56512;DHT22;42408;53.238;5.686;2022-09-27T06:09:13;10.20;99.90
56512;DHT22;42408;53.238;5.686;2022-09-27T06:11:39;10.20;99.90
56512;DHT22;42408;53.238;5.686;2022-09-27T06:14:05;10.30;99.90
56512;DHT22;42408;53.238;5.686;2022-09-27T06:16:31;10.20;99.90
56512;DHT22;42408;53.238;5.686;2022-09-27T06:18:57;10.30;99.90
56512;DHT22;42408;53.238;5.686;2022-09-27T06:21:23;10.20;99.90
56512;DHT22;42408;53.238;5.686;2022-09-27T06:23:49;10.30;99.90
56512;DHT22;42408;53.238;5.686;2022-09-27T06:26:15;10.30;99.90
56512;DHT22;42408;53.238;5.686;2022-09-27T06:28:41;10.30;99.90
56512;DHT22;42408;53.238;5.686;2022-09-27T06:31:07;10.40;99.90
56512;DHT22;42408;53.238;5.686;2022-09-27T06:33:34;10.40;99.90
56512;DHT22;42408;53.238;5.686;2022-09-27T06:36:06;10.40;99.90
56512;DHT22;42408;53.238;5.686;2022-09-27T06:38:33;10.50;99.90
56512;DHT22;42408;53.238;5.686;2022-09-27T06:41:03;10.50;99.90
56512;DHT22;42408;53.238;5.686;2022-09-27T06:43:31;10.50;99.90
56512;DHT22;42408;53.238;5.686;2022-09-27T06:45:59;10.60;99.90
56512;DHT22;42408;53.238;5.686;2022-09-27T06:48:34;10.70;99.90
56512;DHT22;42408;53.238;5.686;2022-09-27T06:51:02;10.60;99.90
56512;DHT22;42408;53.238;5.686;2022-09-27T06:53:27;10.70;99.90
56512;DHT22;42408;53.238;5.686;2022-09-27T06:55:57;10.70;99.90
56512;DHT22;42408;53.238;5.686;2022-09-27T06:58:23;10.70;99.90
56512;DHT22;42408;53.238;5.686;2022-09-27T07:01:07;10.70;99.90
56512;DHT22;42408;53.238;5.686;2022-09-27T07:03:33;10.80;99.90
56512;DHT22;42408;53.238;5.686;2022-09-27T07:06:03;10.80;99.90
56512;DHT22;42408;53.238;5.686;2022-09-27T07:08:30;10.80;99.90
56512;DHT22;42408;53.238;5.686;2022-09-27T07:11:01;10.70;99.90
56512;DHT22;42408;53.238;5.686;2022-09-27T07:13:28;10.70;99.90
56512;DHT22;42408;53.238;5.686;2022-09-27T07:15:55;10.70;99.90
56512;DHT22;42408;53.238;5.686;2022-09-27T07:18:21;10.70;99.90
56512;DHT22;42408;53.238;5.686;2022-09-27T07:20:47;10.70;99.90
56512;DHT22;42408;53.238;5.686;2022-09-27T07:23:13;10.70;99.90
56512;DHT22;42408;53.238;5.686;2022-09-27T07:25:39;10.80;99.90
56512;DHT22;42408;53.238;5.686;2022-09-27T07:28:07;10.90;99.90
56512;DHT22;42408;53.238;5.686;2022-09-27T07:30:34;10.90;99.90
56512;DHT22;42408;53.238;5.686;2022-09-27T07:33:01;11.00;99.90
56512;DHT22;42408;53.238;5.686;2022-09-27T07:35:27;11.00;99.90
56512;DHT22;42408;53.238;5.686;2022-09-27T07:37:54;11.10;99.90
56512;DHT22;42408;53.238;5.686;2022-09-27T07:40:20;11.20;99.90
56512;DHT22;42408;53.238;5.686;2022-09-27T07:42:46;11.20;99.90
56512;DHT22;42408;53.238;5.686;2022-09-27T07:45:12;11.20;99.90
56512;DHT22;42408;53.238;5.686;2022-09-27T07:47:39;11.10;99.90
56512;DHT22;42408;53.238;5.686;2022-09-27T07:50:05;11.10;99.90
56512;DHT22;42408;53.238;5.686;2022-09-27T07:52:38;11.10;99.90
56512;DHT22;42408;53.238;5.686;2022-09-27T07:55:05;11.00;99.90
56512;DHT22;42408;53.238;5.686;2022-09-27T07:57:31;11.00;99.90
56512;DHT22;42408;53.238;5.686;2022-09-27T07:59:57;11.10;99.90
56512;DHT22;42408;53.238;5.686;2022-09-27T08:02:22;11.10;99.90
56512;DHT22;42408;53.238;5.686;2022-09-27T08:04:48;11.20;99.90
56512;DHT22;42408;53.238;5.686;2022-09-27T08:07:14;11.30;99.90
56512;DHT22;42408;53.238;5.686;2022-09-27T08:09:40;11.30;99.90
56512;DHT22;42408;53.238;5.686;2022-09-27T08:12:06;11.40;99.90
56512;DHT22;42408;53.238;5.686;2022-09-27T08:14:31;11.40;99.90
56512;DHT22;42408;53.238;5.686;2022-09-27T08:16:57;11.50;99.90
56512;DHT22;42408;53.238;5.686;2022-09-27T08:19:23;11.50;99.90
56512;DHT22;42408;53.238;5.686;2022-09-27T08:21:51;11.50;99.90
56512;DHT22;42408;53.238;5.686;2022-09-27T08:24:16;11.60;99.90
56512;DHT22;42408;53.238;5.686;2022-09-27T08:26:42;11.60;99.90
56512;DHT22;42408;53.238;5.686;2022-09-27T08:29:08;11.60;99.90
56512;DHT22;42408;53.238;5.686;2022-09-27T08:31:34;11.60;99.90
56512;DHT22;42408;53.238;5.686;2022-09-27T08:33:59;11.60;99.90
56512;DHT22;42408;53.238;5.686;2022-09-27T08:36:26;11.50;99.90
56512;DHT22;42408;53.238;5.686;2022-09-27T08:38:52;11.50;99.90
56512;DHT22;42408;53.238;5.686;2022-09-27T08:41:35;11.40;99.90
56512;DHT22;42408;53.238;5.686;2022-09-27T08:44:26;11.40;99.90
56512;DHT22;42408;53.238;5.686;2022-09-27T08:47:06;11.40;99.90
56512;DHT22;42408;53.238;5.686;2022-09-27T08:49:42;11.40;99.90
56512;DHT22;42408;53.238;5.686;2022-09-27T08:52:30;11.50;99.90
56512;DHT22;42408;53.238;5.686;2022-09-27T08:55:02;11.60;99.90
56512;DHT22;42408;53.238;5.686;2022-09-27T08:57:29;11.70;99.90
56512;DHT22;42408;53.238;5.686;2022-09-27T09:00:03;11.80;99.90
56512;DHT22;42408;53.238;5.686;2022-09-27T09:02:30;11.90;99.90
56512;DHT22;42408;53.238;5.686;2022-09-27T09:05:01;12.00;99.90
56512;DHT22;42408;53.238;5.686;2022-09-27T09:15:51;12.60;99.90
56512;DHT22;42408;53.238;5.686;2022-09-27T09:29:01;12.90;99.90
56512;DHT22;42408;53.238;5.686;2022-09-27T09:34:47;12.70;99.90
56512;DHT22;42408;53.238;5.686;2022-09-27T09:39:52;12.50;99.90
56512;DHT22;42408;53.238;5.686;2022-09-27T09:45:02;12.30;99.90
56512;DHT22;42408;53.238;5.686;2022-09-27T09:47:39;12.30;99.90
56512;DHT22;42408;53.238;5.686;2022-09-27T09:50:22;12.20;99.90
56512;DHT22;42408;53.238;5.686;2022-09-27T09:56:02;12.20;99.90
56512;DHT22;42408;53.238;5.686;2022-09-27T09:58:54;12.20;99.90
56512;DHT22;42408;53.238;5.686;2022-09-27T10:01:40;12.20;99.90
56512;DHT22;42408;53.238;5.686;2022-09-27T10:04:14;12.30;99.90
56512;DHT22;42408;53.238;5.686;2022-09-27T10:06:41;12.40;99.90
56512;DHT22;42408;53.238;5.686;2022-09-27T10:09:10;12.50;99.90
56512;DHT22;42408;53.238;5.686;2022-09-27T10:11:40;12.50;99.90
56512;DHT22;42408;53.238;5.686;2022-09-27T10:14:11;12.50;99.90
56512;DHT22;42408;53.238;5.686;2022-09-27T10:16:39;13.20;99.90
56512;DHT22;42408;53.238;5.686;2022-09-27T10:19:07;12.40;99.90
56512;DHT22;42408;53.238;5.686;2022-09-27T10:21:38;12.40;99.90
56512;DHT22;42408;53.238;5.686;2022-09-27T10:24:12;12.40;99.90
56512;DHT22;42408;53.238;5.686;2022-09-27T10:26:40;12.50;99.90
56512;DHT22;42408;53.238;5.686;2022-09-27T10:29:21;12.50;99.90
56512;DHT22;42408;53.238;5.686;2022-09-27T10:31:48;12.80;99.90
56512;DHT22;42408;53.238;5.686;2022-09-27T10:34:27;13.00;99.90
56512;DHT22;42408;53.238;5.686;2022-09-27T10:37:08;13.40;99.90
56512;DHT22;42408;53.238;5.686;2022-09-27T10:39:43;13.50;99.90
56512;DHT22;42408;53.238;5.686;2022-09-27T10:42:34;13.60;99.90
56512;DHT22;42408;53.238;5.686;2022-09-27T10:45:21;13.60;99.90
56512;DHT22;42408;53.238;5.686;2022-09-27T10:47:50;13.60;99.90
56512;DHT22;42408;53.238;5.686;2022-09-27T10:50:24;13.50;99.90
56512;DHT22;42408;53.238;5.686;2022-09-27T10:53:04;13.40;99.90
56512;DHT22;42408;53.238;5.686;2022-09-27T10:55:34;13.40;99.90
56512;DHT22;42408;53.238;5.686;2022-09-27T10:58:01;13.50;99.90
56512;DHT22;42408;53.238;5.686;2022-09-27T11:00:31;13.50;99.90
56512;DHT22;42408;53.238;5.686;2022-09-27T11:03:04;13.70;99.90
56512;DHT22;42408;53.238;5.686;2022-09-27T11:05:35;13.70;99.90
56512;DHT22;42408;53.238;5.686;2022-09-27T11:08:27;13.70;99.90
56512;DHT22;42408;53.238;5.686;2022-09-27T11:11:17;13.70;99.90
56512;DHT22;42408;53.238;5.686;2022-09-27T11:13:58;13.50;99.90
56512;DHT22;42408;53.238;5.686;2022-09-27T11:20:09;13.40;99.90
56512;DHT22;42408;53.238;5.686;2022-09-27T11:30:30;13.70;99.90
56512;DHT22;42408;53.238;5.686;2022-09-27T11:33:39;13.90;99.90
56512;DHT22;42408;53.238;5.686;2022-09-27T11:41:40;14.20;99.90
56512;DHT22;42408;53.238;5.686;2022-09-27T11:44:17;14.30;99.90
56512;DHT22;42408;53.238;5.686;2022-09-27T11:52:30;14.30;99.90
56512;DHT22;42408;53.238;5.686;2022-09-27T11:57:54;14.10;99.90
56512;DHT22;42408;53.238;5.686;2022-09-27T12:00:40;13.80;99.90
56512;DHT22;42408;53.238;5.686;2022-09-27T12:08:56;13.30;99.90
56512;DHT22;42408;53.238;5.686;2022-09-27T12:11:40;13.30;99.90
56512;DHT22;42408;53.238;5.686;2022-09-27T12:14:34;13.40;99.90
56512;DHT22;42408;53.238;5.686;2022-09-27T12:17:04;13.40;99.90
56512;DHT22;42408;53.238;5.686;2022-09-27T12:19:39;13.40;99.90
56512;DHT22;42408;53.238;5.686;2022-09-27T12:22:11;13.40;99.90
56512;DHT22;42408;53.238;5.686;2022-09-27T12:24:38;13.30;99.90
56512;DHT22;42408;53.238;5.686;2022-09-27T12:27:09;13.30;99.90
56512;DHT22;42408;53.238;5.686;2022-09-27T12:29:40;13.20;99.90
56512;DHT22;42408;53.238;5.686;2022-09-27T12:32:25;13.20;99.90
56512;DHT22;42408;53.238;5.686;2022-09-27T12:35:14;13.10;99.90
56512;DHT22;42408;53.238;5.686;2022-09-27T12:38:04;13.00;99.90
56512;DHT22;42408;53.238;5.686;2022-09-27T12:40:35;12.90;99.90
56512;DHT22;42408;53.238;5.686;2022-09-27T12:43:22;12.80;99.90
56512;DHT22;42408;53.238;5.686;2022-09-27T12:51:11;12.60;99.90
56512;DHT22;42408;53.238;5.686;2022-09-27T13:02:25;12.40;99.90
56512;DHT22;42408;53.238;5.686;2022-09-27T13:13:38;12.40;99.90
56512;DHT22;42408;53.238;5.686;2022-09-27T13:16:05;12.30;99.90
56512;DHT22;42408;53.238;5.686;2022-09-27T13:21:05;12.40;99.90
56512;DHT22;42408;53.238;5.686;2022-09-27T13:26:02;12.30;99.90
56512;DHT22;42408;53.238;5.686;2022-09-27T13:31:04;12.30;99.90
56512;DHT22;42408;53.238;5.686;2022-09-27T13:33:46;12.30;99.90
56512;DHT22;42408;53.238;5.686;2022-09-27T13:36:17;12.40;99.90
56512;DHT22;42408;53.238;5.686;2022-09-27T13:49:43;12.70;99.90
56512;DHT22;42408;53.238;5.686;2022-09-27T13:52:31;12.80;99.90
56512;DHT22;42408;53.238;5.686;2022-09-27T13:55:00;12.80;99.90
56512;DHT22;42408;53.238;5.686;2022-09-27T13:57:57;12.90;99.90
56512;DHT22;42408;53.238;5.686;2022-09-27T14:00:38;12.90;99.90
56512;DHT22;42408;53.238;5.686;2022-09-27T14:05:54;13.00;99.90
56512;DHT22;42408;53.238;5.686;2022-09-27T14:10:58;13.10;99.90
56512;DHT22;42408;53.238;5.686;2022-09-27T14:13:25;13.10;99.90
56512;DHT22;42408;53.238;5.686;2022-09-27T14:15:51;13.10;99.90
56512;DHT22;42408;53.238;5.686;2022-09-27T14:18:18;13.10;99.90
56512;DHT22;42408;53.238;5.686;2022-09-27T14:20:48;13.20;99.90
56512;DHT22;42408;53.238;5.686;2022-09-27T14:23:23;13.20;99.90
56512;DHT22;42408;53.238;5.686;2022-09-27T14:25:51;13.20;99.90
56512;DHT22;42408;53.238;5.686;2022-09-27T14:28:29;13.20;99.90
56512;DHT22;42408;53.238;5.686;2022-09-27T14:33:33;13.20;99.90
56512;DHT22;42408;53.238;5.686;2022-09-27T14:35:59;13.20;99.90
56512;DHT22;42408;53.238;5.686;2022-09-27T14:38:44;13.20;99.90
56512;DHT22;42408;53.238;5.686;2022-09-27T14:41:10;13.10;99.90
56512;DHT22;42408;53.238;5.686;2022-09-27T14:43:41;13.10;99.90
56512;DHT22;42408;53.238;5.686;2022-09-27T14:46:24;13.20;99.90
56512;DHT22;42408;53.238;5.686;2022-09-27T14:48:50;13.10;99.90
56512;DHT22;42408;53.238;5.686;2022-09-27T14:51:20;13.10;99.90
56512;DHT22;42408;53.238;5.686;2022-09-27T14:53:51;13.00;99.90
56512;DHT22;42408;53.238;5.686;2022-09-27T14:56:27;13.00;99.90
56512;DHT22;42408;53.238;5.686;2022-09-27T14:58:57;13.10;99.90
56512;DHT22;42408;53.238;5.686;2022-09-27T15:01:27;13.10;99.90
56512;DHT22;42408;53.238;5.686;2022-09-27T15:03:53;13.00;99.90
56512;DHT22;42408;53.238;5.686;2022-09-27T15:06:20;13.00;99.90
56512;DHT22;42408;53.238;5.686;2022-09-27T15:08:47;13.10;99.90
56512;DHT22;42408;53.238;5.686;2022-09-27T15:11:16;13.10;99.90
56512;DHT22;42408;53.238;5.686;2022-09-27T15:13:42;13.10;99.90
56512;DHT22;42408;53.238;5.686;2022-09-27T15:16:15;13.10;99.90
56512;DHT22;42408;53.238;5.686;2022-09-27T15:18:47;13.10;99.90
56512;DHT22;42408;53.238;5.686;2022-09-27T15:21:28;13.10;99.90
56512;DHT22;42408;53.238;5.686;2022-09-27T15:23:55;13.10;99.90
56512;DHT22;42408;53.238;5.686;2022-09-27T15:28:50;13.10;99.90
56512;DHT22;42408;53.238;5.686;2022-09-27T15:31:30;13.10;99.90
56512;DHT22;42408;53.238;5.686;2022-09-27T15:33:56;12.80;99.90
56512;DHT22;42408;53.238;5.686;2022-09-27T15:39:25;12.60;99.90
56512;DHT22;42408;53.238;5.686;2022-09-27T15:42:09;12.50;99.90
56512;DHT22;42408;53.238;5.686;2022-09-27T15:44:46;12.20;99.90
56512;DHT22;42408;53.238;5.686;2022-09-27T15:55:10;12.00;99.90
56512;DHT22;42408;53.238;5.686;2022-09-27T15:57:37;11.80;99.90
56512;DHT22;42408;53.238;5.686;2022-09-27T16:00:04;11.80;99.90
56512;DHT22;42408;53.238;5.686;2022-09-27T16:02:30;11.70;99.90
56512;DHT22;42408;53.238;5.686;2022-09-27T16:04:55;11.60;99.90
56512;DHT22;42408;53.238;5.686;2022-09-27T16:07:21;11.60;99.90
56512;DHT22;42408;53.238;5.686;2022-09-27T16:09:47;11.60;99.90
56512;DHT22;42408;53.238;5.686;2022-09-27T16:12:15;11.50;99.90
56512;DHT22;42408;53.238;5.686;2022-09-27T16:14:40;11.50;99.90
56512;DHT22;42408;53.238;5.686;2022-09-27T16:17:07;11.40;99.90
56512;DHT22;42408;53.238;5.686;2022-09-27T16:19:33;11.30;99.90
56512;DHT22;42408;53.238;5.686;2022-09-27T16:21:58;11.30;99.90
56512;DHT22;42408;53.238;5.686;2022-09-27T16:24:28;11.20;99.90
56512;DHT22;42408;53.238;5.686;2022-09-27T16:26:54;11.10;99.90
56512;DHT22;42408;53.238;5.686;2022-09-27T16:29:19;11.10;99.90
56512;DHT22;42408;53.238;5.686;2022-09-27T16:31:46;11.00;99.90
56512;DHT22;42408;53.238;5.686;2022-09-27T16:34:12;11.00;99.90
56512;DHT22;42408;53.238;5.686;2022-09-27T16:36:38;11.00;99.90
56512;DHT22;42408;53.238;5.686;2022-09-27T16:39:05;10.90;99.90
56512;DHT22;42408;53.238;5.686;2022-09-27T16:41:31;10.90;99.90
56512;DHT22;42408;53.238;5.686;2022-09-27T16:44:09;10.90;99.90
56512;DHT22;42408;53.238;5.686;2022-09-27T16:46:38;10.90;99.90
56512;DHT22;42408;53.238;5.686;2022-09-27T16:49:03;10.80;99.90
56512;DHT22;42408;53.238;5.686;2022-09-27T16:51:29;10.80;99.90
56512;DHT22;42408;53.238;5.686;2022-09-27T16:54:33;10.80;99.90
56512;DHT22;42408;53.238;5.686;2022-09-27T16:56:59;10.70;99.90
56512;DHT22;42408;53.238;5.686;2022-09-27T16:59:25;10.70;99.90
56512;DHT22;42408;53.238;5.686;2022-09-27T17:01:51;10.70;99.90
56512;DHT22;42408;53.238;5.686;2022-09-27T17:04:19;10.70;99.90
56512;DHT22;42408;53.238;5.686;2022-09-27T17:06:44;10.60;99.90
56512;DHT22;42408;53.238;5.686;2022-09-27T17:09:10;10.60;99.90
56512;DHT22;42408;53.238;5.686;2022-09-27T17:11:36;10.60;99.90
56512;DHT22;42408;53.238;5.686;2022-09-27T17:14:02;10.60;99.90
56512;DHT22;42408;53.238;5.686;2022-09-27T17:16:27;10.60;99.90
56512;DHT22;42408;53.238;5.686;2022-09-27T17:18:53;10.50;99.90
56512;DHT22;42408;53.238;5.686;2022-09-27T17:21:19;10.50;99.90
56512;DHT22;42408;53.238;5.686;2022-09-27T17:23:45;10.50;99.90
56512;DHT22;42408;53.238;5.686;2022-09-27T17:26:20;10.50;99.90
56512;DHT22;42408;53.238;5.686;2022-09-27T17:28:47;10.50;99.90
56512;DHT22;42408;53.238;5.686;2022-09-27T17:31:14;10.40;99.90
56512;DHT22;42408;53.238;5.686;2022-09-27T17:33:44;10.40;99.90
56512;DHT22;42408;53.238;5.686;2022-09-27T17:36:13;10.40;99.90
56512;DHT22;42408;53.238;5.686;2022-09-27T17:38:39;10.40;99.90
56512;DHT22;42408;53.238;5.686;2022-09-27T17:41:07;10.30;99.90
56512;DHT22;42408;53.238;5.686;2022-09-27T17:43:36;10.50;99.90
56512;DHT22;42408;53.238;5.686;2022-09-27T17:46:05;10.30;99.90
56512;DHT22;42408;53.238;5.686;2022-09-27T17:48:31;10.30;99.90
56512;DHT22;42408;53.238;5.686;2022-09-27T17:51:16;10.20;99.90
56512;DHT22;42408;53.238;5.686;2022-09-27T17:53:41;10.30;99.90
56512;DHT22;42408;53.238;5.686;2022-09-27T17:56:07;10.30;99.90
56512;DHT22;42408;53.238;5.686;2022-09-27T17:58:33;10.20;99.90
56512;DHT22;42408;53.238;5.686;2022-09-27T18:01:05;10.40;99.90
56512;DHT22;42408;53.238;5.686;2022-09-27T18:03:32;10.30;99.90
56512;DHT22;42408;53.238;5.686;2022-09-27T18:05:58;10.20;99.90
56512;DHT22;42408;53.238;5.686;2022-09-27T18:08:28;10.10;99.90
56512;DHT22;42408;53.238;5.686;2022-09-27T18:10:54;10.10;99.90
56512;DHT22;42408;53.238;5.686;2022-09-27T18:13:20;10.10;99.90